Time;durP1;ratioP1;P1;durP2;ratioP2;P2;SDS_P1;SDS_P2;PMS_P1;PMS_P2;Temp;Humidity;BMP_temperature;BMP_pressure;BME280_temperature;BME280_humidity;BME280_pressure;Samples;Min_cycle;Max_cycle;Signal;HPM_P1;HPM_P2
2023/02/02 00:01:22;;;;;;;28.55;4.18;;;5.70;99.90;;;;;;5027457;28;20029;-76
2023/02/02 00:03:51;;;;;;;25.80;3.80;;;5.60;99.90;;;;;;5021959;28;20025;-77
2023/02/02 00:06:18;;;;;;;32.47;4.63;;;5.60;99.90;;;;;;5010455;28;20037;-77
2023/02/02 00:08:44;;;;;;;38.70;5.43;;;5.70;99.90;;;;;;4991853;28;20444;-76
2023/02/02 00:11:11;;;;;;;26.95;4.38;;;5.70;99.90;;;;;;5028814;28;20504;-75
2023/02/02 00:13:37;;;;;;;27.63;4.28;;;5.80;99.90;;;;;;5025712;28;20536;-74
2023/02/02 00:16:41;;;;;;;26.80;4.47;;;5.70;99.90;;;;;;5028581;28;20026;-76
2023/02/02 00:19:10;;;;;;;29.60;4.78;;;5.80;99.90;;;;;;5024021;28;20109;-74
2023/02/02 00:21:37;;;;;;;33.92;4.18;;;5.70;99.90;;;;;;5021999;28;20323;-76
2023/02/02 00:24:04;;;;;;;32.63;5.10;;;5.70;99.90;;;;;;5025409;28;20108;-76
2023/02/02 00:26:30;;;;;;;37.17;4.93;;;5.70;99.90;;;;;;5026337;28;20095;-74
2023/02/02 00:28:56;;;;;;;35.60;5.38;;;5.70;99.90;;;;;;5023685;28;20091;-74
2023/02/02 00:31:22;;;;;;;27.13;4.18;;;5.60;99.90;;;;;;5008934;28;20033;-75
2023/02/02 00:33:49;;;;;;;29.52;4.35;;;5.60;99.90;;;;;;5025257;28;20041;-75
2023/02/02 00:36:16;;;;;;;27.67;4.55;;;5.60;99.90;;;;;;5026895;28;20033;-75
2023/02/02 00:38:42;;;;;;;26.75;5.20;;;5.70;99.90;;;;;;5024509;28;20037;-74
2023/02/02 00:41:08;;;;;;;26.42;3.90;;;5.70;99.90;;;;;;5027961;28;20036;-77
2023/02/02 00:43:33;;;;;;;32.53;4.90;;;5.70;99.90;;;;;;5024499;28;20022;-74
2023/02/02 00:45:59;;;;;;;29.88;5.22;;;5.60;99.90;;;;;;5040378;28;20025;-76
2023/02/02 00:48:25;;;;;;;29.30;4.20;;;5.70;99.90;;;;;;5027867;28;20477;-76
2023/02/02 00:50:52;;;;;;;30.08;4.72;;;5.70;99.90;;;;;;5025851;28;20512;-74
2023/02/02 00:53:18;;;;;;;27.17;3.75;;;5.70;99.90;;;;;;5027605;28;20069;-76
2023/02/02 00:55:44;;;;;;;22.25;3.92;;;5.70;99.90;;;;;;5024929;28;20072;-75
2023/02/02 00:58:10;;;;;;;36.58;4.22;;;5.70;99.90;;;;;;5007597;28;20050;-75
2023/02/02 01:00:36;;;;;;;32.63;4.80;;;5.60;99.90;;;;;;5024419;28;20037;-75
2023/02/02 01:03:03;;;;;;;25.25;3.60;;;5.60;99.90;;;;;;5023533;28;20497;-76
2023/02/02 01:05:33;;;;;;;16.33;3.42;;;5.60;99.90;;;;;;5024975;28;20120;-75
2023/02/02 01:07:59;;;;;;;20.63;3.42;;;5.60;99.90;;;;;;5024280;28;20080;-75
2023/02/02 01:10:25;;;;;;;23.63;3.83;;;5.60;99.90;;;;;;5025503;28;20091;-74
2023/02/02 01:12:51;;;;;;;20.98;2.85;;;5.60;99.90;;;;;;5025511;28;20033;-77
2023/02/02 01:15:17;;;;;;;16.98;3.65;;;5.60;99.90;;;;;;5026197;28;20477;-76
2023/02/02 01:17:43;;;;;;;24.20;3.25;;;5.60;99.90;;;;;;5023727;28;20802;-75
2023/02/02 01:20:15;;;;;;;32.88;5.28;;;5.60;99.90;;;;;;5025159;28;20057;-75
2023/02/02 01:22:41;;;;;;;27.70;4.80;;;5.50;99.90;;;;;;5024011;28;20466;-75
2023/02/02 01:25:07;;;;;;;32.03;4.32;;;5.50;99.90;;;;;;5026980;28;20148;-75
2023/02/02 01:27:33;;;;;;;29.67;3.38;;;5.40;99.90;;;;;;5026004;28;20394;-77
2023/02/02 01:29:59;;;;;;;22.40;3.88;;;5.40;99.90;;;;;;5025639;28;20025;-77
2023/02/02 01:32:25;;;;;;;27.05;4.38;;;5.40;99.90;;;;;;5024170;28;20824;-75
2023/02/02 01:34:50;;;;;;;30.90;3.63;;;5.40;99.90;;;;;;5026996;28;20030;-77
2023/02/02 01:37:16;;;;;;;24.98;4.05;;;5.50;99.90;;;;;;5011719;28;20034;-77
2023/02/02 01:39:42;;;;;;;25.77;3.78;;;5.50;99.90;;;;;;5042955;28;20115;-76
2023/02/02 01:42:20;;;;;;;26.02;3.92;;;5.50;99.90;;;;;;5026537;28;20022;-75
2023/02/02 01:44:52;;;;;;;24.48;3.60;;;5.50;99.90;;;;;;5026357;28;20196;-77
2023/02/02 01:47:26;;;;;;;25.75;3.20;;;5.50;99.90;;;;;;5026919;28;20029;-75
2023/02/02 01:49:54;;;;;;;29.13;4.20;;;5.60;99.90;;;;;;5023604;28;20053;-75
2023/02/02 01:52:22;;;;;;;25.42;3.42;;;5.60;99.90;;;;;;5009227;28;20105;-75
2023/02/02 01:54:53;;;;;;;23.25;3.45;;;5.60;99.90;;;;;;5025563;28;20036;-76
2023/02/02 01:57:32;;;;;;;23.25;3.90;;;5.50;99.90;;;;;;5023824;28;20061;-76
2023/02/02 02:00:00;;;;;;;22.58;3.00;;;5.50;99.90;;;;;;5022521;28;20156;-75
2023/02/02 02:02:28;;;;;;;15.95;2.20;;;5.50;99.90;;;;;;5025542;28;20104;-76
2023/02/02 02:04:54;;;;;;;13.07;2.17;;;5.50;99.90;;;;;;5025777;28;20083;-76
2023/02/02 02:07:21;;;;;;;26.20;4.60;;;5.50;99.90;;;;;;5004778;28;20500;-75
2023/02/02 02:09:47;;;;;;;15.68;3.83;;;5.40;99.90;;;;;;5027020;28;20167;-76
2023/02/02 02:12:14;;;;;;;22.92;3.85;;;5.40;99.90;;;;;;5026394;28;20417;-76
2023/02/02 02:17:46;;;;;;;16.65;3.67;;;5.30;99.90;;;;;;5025134;28;20033;-77
2023/02/02 02:27:27;;;;;;;26.88;3.50;;;5.30;99.90;;;;;;5029272;28;20092;-75
2023/02/02 02:30:22;;;;;;;32.65;4.40;;;5.30;99.90;;;;;;5028204;28;20112;-76
2023/02/02 02:33:04;;;;;;;28.35;3.92;;;5.30;99.90;;;;;;5020229;28;20114;-77
2023/02/02 02:35:41;;;;;;;29.23;3.92;;;5.30;99.90;;;;;;5027825;28;20405;-76
2023/02/02 02:38:20;;;;;;;26.33;3.33;;;5.30;99.90;;;;;;5026225;28;20102;-75
2023/02/02 02:40:54;;;;;;;21.40;3.42;;;5.20;99.90;;;;;;5027309;28;20121;-75
2023/02/02 02:43:23;;;;;;;29.02;4.53;;;5.20;99.90;;;;;;5029228;28;20684;-76
2023/02/02 02:45:49;;;;;;;31.85;4.00;;;5.20;99.90;;;;;;5010291;28;20163;-75
2023/02/02 02:48:16;;;;;;;22.40;2.97;;;5.20;99.90;;;;;;5028272;28;20026;-76
2023/02/02 02:50:41;;;;;;;31.38;3.22;;;5.10;99.90;;;;;;5037878;28;20052;-76
2023/02/02 02:53:13;;;;;;;31.58;4.30;;;5.10;99.90;;;;;;4994866;28;20025;-76
2023/02/02 02:55:59;;;;;;;26.80;3.78;;;5.10;99.90;;;;;;5023551;28;20044;-75
2023/02/02 02:58:34;;;;;;;24.90;4.05;;;5.20;99.90;;;;;;5042906;28;20534;-75
2023/02/02 03:01:17;;;;;;;26.80;3.40;;;5.20;99.90;;;;;;5026551;28;20196;-77
2023/02/02 03:03:56;;;;;;;18.55;3.53;;;5.20;99.90;;;;;;5028268;28;20548;-77
2023/02/02 03:06:32;;;;;;;26.45;4.00;;;5.20;99.90;;;;;;5028589;28;20136;-77
2023/02/02 03:08:59;;;;;;;25.45;3.72;;;5.30;99.90;;;;;;5025683;28;20497;-77
2023/02/02 03:11:25;;;;;;;22.17;3.10;;;5.30;99.90;;;;;;5044258;28;20037;-75
2023/02/02 03:13:51;;;;;;;17.60;2.88;;;5.30;99.90;;;;;;5030260;28;20049;-75
2023/02/02 03:16:18;;;;;;;19.67;2.90;;;5.30;99.90;;;;;;5033156;28;20057;-78
2023/02/02 03:18:44;;;;;;;20.33;3.08;;;5.30;99.90;;;;;;5022194;28;20057;-77
2023/02/02 03:21:10;;;;;;;21.70;3.50;;;5.30;99.90;;;;;;5032834;28;20044;-75
2023/02/02 03:23:37;;;;;;;19.10;2.97;;;5.30;99.90;;;;;;5029831;28;20084;-75
2023/02/02 03:26:03;;;;;;;22.00;2.85;;;5.30;99.90;;;;;;5029779;28;20095;-76
2023/02/02 03:28:31;;;;;;;20.08;3.28;;;5.30;99.90;;;;;;5028713;28;20045;-76
2023/02/02 03:30:59;;;;;;;24.73;2.60;;;5.30;99.90;;;;;;4993349;28;20053;-75
2023/02/02 03:33:24;;;;;;;18.60;2.72;;;5.30;99.90;;;;;;5028520;28;20033;-75
2023/02/02 03:35:50;;;;;;;24.63;3.88;;;5.30;99.90;;;;;;5026089;28;20049;-75
2023/02/02 03:38:16;;;;;;;18.08;3.17;;;5.30;99.90;;;;;;5039669;28;20386;-77
2023/02/02 03:40:42;;;;;;;22.40;3.05;;;5.30;99.90;;;;;;5040703;28;20033;-77
2023/02/02 03:43:07;;;;;;;15.90;2.80;;;5.30;99.90;;;;;;5028390;28;20044;-75
2023/02/02 03:45:39;;;;;;;26.40;3.58;;;5.20;99.90;;;;;;5027585;28;20095;-77
2023/02/02 03:48:05;;;;;;;19.92;3.10;;;5.20;99.90;;;;;;5027428;28;20025;-77
2023/02/02 03:50:31;;;;;;;16.48;2.80;;;5.20;99.90;;;;;;5025309;28;20112;-75
2023/02/02 03:52:57;;;;;;;20.98;2.33;;;5.10;99.90;;;;;;5025584;28;20073;-75
2023/02/02 03:55:23;;;;;;;20.15;3.10;;;5.10;99.90;;;;;;5025353;28;20053;-75
2023/02/02 03:57:48;;;;;;;16.80;2.70;;;5.10;99.90;;;;;;5026249;28;20049;-77
2023/02/02 04:00:15;;;;;;;14.82;2.83;;;5.20;99.90;;;;;;5026922;28;20057;-75
2023/02/02 04:02:40;;;;;;;13.82;2.58;;;5.10;99.90;;;;;;5028103;28;20052;-75
2023/02/02 04:05:06;;;;;;;13.60;2.20;;;5.10;99.90;;;;;;5026903;28;20029;-77
2023/02/02 04:07:32;;;;;;;23.10;2.30;;;5.10;99.90;;;;;;5027708;28;20107;-74
2023/02/02 04:09:58;;;;;;;15.55;2.45;;;5.10;99.90;;;;;;5025151;28;20564;-74
2023/02/02 04:12:24;;;;;;;14.10;2.33;;;5.10;99.90;;;;;;5026346;28;20021;-76
2023/02/02 04:14:50;;;;;;;13.85;2.20;;;5.20;99.90;;;;;;5007463;28;20184;-75
2023/02/02 04:17:15;;;;;;;16.05;2.00;;;5.20;99.90;;;;;;5026875;28;20033;-75
2023/02/02 04:19:41;;;;;;;21.20;3.13;;;5.20;99.90;;;;;;5025762;28;20033;-75
2023/02/02 04:22:07;;;;;;;16.63;2.53;;;5.20;99.90;;;;;;5025105;28;20025;-76
2023/02/02 04:24:32;;;;;;;18.45;2.80;;;5.20;99.90;;;;;;5007315;28;20052;-75
2023/02/02 04:26:58;;;;;;;15.45;3.13;;;5.20;99.90;;;;;;5023994;28;20040;-75
2023/02/02 04:29:25;;;;;;;23.52;3.95;;;5.30;99.90;;;;;;5026594;28;20030;-76
2023/02/02 04:31:51;;;;;;;20.02;3.25;;;5.30;99.90;;;;;;5025275;28;20040;-76
2023/02/02 04:34:16;;;;;;;15.30;2.47;;;5.30;99.90;;;;;;5025073;28;20029;-75
2023/02/02 04:36:42;;;;;;;22.13;3.20;;;5.30;99.90;;;;;;5025929;28;20481;-76
2023/02/02 04:39:10;;;;;;;15.18;2.22;;;5.30;99.90;;;;;;5023787;28;20037;-75
2023/02/02 04:41:36;;;;;;;15.57;2.38;;;5.40;99.90;;;;;;5021050;28;20087;-77
2023/02/02 04:44:02;;;;;;;17.73;2.75;;;5.40;99.90;;;;;;5025423;28;20123;-76
2023/02/02 04:46:28;;;;;;;22.27;2.60;;;5.30;99.90;;;;;;5025392;28;20047;-75
2023/02/02 04:48:54;;;;;;;18.45;2.47;;;5.30;99.90;;;;;;5041044;28;20041;-77
2023/02/02 04:51:19;;;;;;;16.27;2.42;;;5.30;99.90;;;;;;5038775;28;20124;-76
2023/02/02 04:53:45;;;;;;;22.52;4.05;;;5.30;99.90;;;;;;5025418;28;20377;-76
2023/02/02 04:56:17;;;;;;;21.50;2.47;;;5.30;99.90;;;;;;5025265;28;20021;-76
2023/02/02 04:58:44;;;;;;;19.88;3.50;;;5.30;99.90;;;;;;5024598;28;20029;-75
2023/02/02 05:01:18;;;;;;;23.00;4.05;;;5.30;99.90;;;;;;5024362;28;20037;-75
2023/02/02 05:03:44;;;;;;;24.38;3.70;;;5.30;99.90;;;;;;5027013;28;20087;-76
2023/02/02 05:06:10;;;;;;;19.77;3.17;;;5.30;99.90;;;;;;5038520;28;20033;-77
2023/02/02 05:08:36;;;;;;;19.80;3.63;;;5.40;99.90;;;;;;5022990;28;20057;-77
2023/02/02 05:11:07;;;;;;;22.33;2.92;;;5.40;99.90;;;;;;5025678;28;20026;-79
2023/02/02 05:13:33;;;;;;;36.92;3.83;;;5.40;99.90;;;;;;5006738;28;20136;-76
2023/02/02 05:15:58;;;;;;;31.00;3.45;;;5.40;99.90;;;;;;5024435;28;20112;-74
2023/02/02 05:18:24;;;;;;;21.98;3.40;;;5.40;99.90;;;;;;5024764;28;20120;-75
2023/02/02 05:20:51;;;;;;;29.45;3.50;;;5.40;99.90;;;;;;5025997;28;20037;-77
2023/02/02 05:23:18;;;;;;;24.20;3.33;;;5.40;99.90;;;;;;5023571;28;20488;-76
2023/02/02 05:25:44;;;;;;;23.00;3.47;;;5.40;99.90;;;;;;5022150;28;20107;-77
2023/02/02 05:28:10;;;;;;;32.15;3.53;;;5.30;99.90;;;;;;5018061;28;20873;-75
2023/02/02 05:30:39;;;;;;;22.00;3.03;;;5.40;99.90;;;;;;5024351;28;20040;-77
2023/02/02 05:33:05;;;;;;;21.00;3.22;;;5.30;99.90;;;;;;5009954;28;20048;-77
2023/02/02 05:35:30;;;;;;;23.00;3.35;;;5.40;99.90;;;;;;5010468;28;20029;-78
2023/02/02 05:37:56;;;;;;;27.58;3.90;;;5.30;99.90;;;;;;5015848;28;20036;-75
2023/02/02 05:40:22;;;;;;;28.63;4.00;;;5.30;99.90;;;;;;5024326;28;20038;-76
2023/02/02 05:42:48;;;;;;;29.52;5.32;;;5.30;99.90;;;;;;5025069;28;20037;-77
2023/02/02 05:45:14;;;;;;;21.52;4.10;;;5.40;99.90;;;;;;5028656;28;20032;-76
2023/02/02 05:47:39;;;;;;;30.20;4.15;;;5.40;99.90;;;;;;5024095;28;20511;-75
2023/02/02 05:50:06;;;;;;;25.23;3.97;;;5.40;99.90;;;;;;5029210;28;20040;-75
2023/02/02 05:52:34;;;;;;;20.13;3.40;;;5.50;99.90;;;;;;5026963;28;20584;-75
2023/02/02 05:55:00;;;;;;;27.08;4.10;;;5.50;99.90;;;;;;5029325;28;20033;-77
2023/02/02 05:57:26;;;;;;;31.17;4.43;;;5.50;99.90;;;;;;5027374;28;20040;-75
2023/02/02 05:59:53;;;;;;;32.25;4.43;;;5.50;99.90;;;;;;5031017;28;20228;-78
2023/02/02 06:02:20;;;;;;;26.58;3.72;;;5.50;99.90;;;;;;4994948;28;20026;-80
2023/02/02 06:04:45;;;;;;;26.40;3.97;;;5.50;99.90;;;;;;4992192;28;20045;-77
2023/02/02 06:07:12;;;;;;;22.73;3.63;;;5.50;99.90;;;;;;5028428;28;20510;-76
2023/02/02 06:09:38;;;;;;;26.15;3.78;;;5.50;99.90;;;;;;5027657;28;20029;-77
2023/02/02 06:12:04;;;;;;;24.25;3.47;;;5.50;99.90;;;;;;5028332;28;20411;-76
2023/02/02 06:14:30;;;;;;;30.23;4.43;;;5.50;99.90;;;;;;5027211;28;20140;-75
2023/02/02 06:16:55;;;;;;;30.45;3.63;;;5.50;99.90;;;;;;5026853;28;20450;-74
2023/02/02 06:19:21;;;;;;;27.92;3.90;;;5.50;99.90;;;;;;5029615;28;20092;-74
2023/02/02 06:21:47;;;;;;;23.60;3.80;;;5.50;99.90;;;;;;5030779;28;20135;-78
2023/02/02 06:24:13;;;;;;;32.03;4.20;;;5.50;99.90;;;;;;5028732;28;20041;-75
2023/02/02 06:26:38;;;;;;;37.58;4.82;;;5.50;99.90;;;;;;5012981;28;20024;-76
2023/02/02 06:29:05;;;;;;;26.98;4.15;;;5.50;99.90;;;;;;5026801;28;20032;-76
2023/02/02 06:31:32;;;;;;;35.10;4.15;;;5.50;99.90;;;;;;5027801;28;20044;-75
2023/02/02 06:33:58;;;;;;;28.20;4.20;;;5.50;99.90;;;;;;5029059;28;20052;-75
2023/02/02 06:36:25;;;;;;;26.33;4.43;;;5.40;99.90;;;;;;5025133;28;20152;-76
2023/02/02 06:38:53;;;;;;;26.80;3.67;;;5.40;99.90;;;;;;5027912;28;20036;-74
2023/02/02 06:41:20;;;;;;;27.75;3.95;;;5.40;99.90;;;;;;5030649;28;20044;-74
2023/02/02 06:43:47;;;;;;;31.20;5.13;;;5.40;99.90;;;;;;5033789;28;20533;-74
2023/02/02 06:46:12;;;;;;;31.08;4.13;;;5.50;99.90;;;;;;5028820;28;20041;-76
2023/02/02 06:48:39;;;;;;;22.42;4.03;;;5.50;99.90;;;;;;5030157;28;20101;-75
2023/02/02 06:51:05;;;;;;;28.52;4.25;;;5.50;99.90;;;;;;5026438;28;20490;-75
2023/02/02 06:53:34;;;;;;;31.42;3.85;;;5.50;99.90;;;;;;5021590;28;20605;-77
2023/02/02 06:56:05;;;;;;;28.73;4.22;;;5.50;99.90;;;;;;5024834;28;20181;-75
2023/02/02 06:58:31;;;;;;;28.30;3.63;;;5.40;99.90;;;;;;5008858;28;20030;-77
2023/02/02 07:01:15;;;;;;;32.60;4.00;;;5.40;99.90;;;;;;5024426;28;20120;-75
2023/02/02 07:03:41;;;;;;;35.88;4.53;;;5.50;99.90;;;;;;5027728;28;20035;-76
2023/02/02 07:06:21;;;;;;;34.47;5.70;;;5.50;99.90;;;;;;5030054;28;20033;-76
2023/02/02 07:08:49;;;;;;;29.52;3.83;;;5.50;99.90;;;;;;5006128;28;20021;-76
2023/02/02 07:11:15;;;;;;;27.25;3.20;;;5.50;99.90;;;;;;5023690;28;20056;-76
2023/02/02 07:13:41;;;;;;;22.75;3.13;;;5.40;99.90;;;;;;5028900;28;20043;-76
2023/02/02 07:16:08;;;;;;;27.60;3.95;;;5.40;99.90;;;;;;5005874;28;20409;-77
2023/02/02 07:18:38;;;;;;;22.85;4.65;;;5.50;99.90;;;;;;5004881;28;20029;-74
2023/02/02 07:21:05;;;;;;;25.33;3.35;;;5.50;99.90;;;;;;5026568;28;20365;-77
2023/02/02 07:23:32;;;;;;;29.35;3.65;;;5.40;99.90;;;;;;5010722;28;20021;-78
2023/02/02 07:26:06;;;;;;;22.10;3.58;;;5.50;99.90;;;;;;5012876;28;20063;-76
2023/02/02 07:28:32;;;;;;;22.67;3.42;;;5.40;99.90;;;;;;5007790;28;20021;-74
2023/02/02 07:30:59;;;;;;;25.95;4.22;;;5.50;99.90;;;;;;5028486;28;20044;-75
2023/02/02 07:33:25;;;;;;;27.77;3.58;;;5.50;99.90;;;;;;5022621;28;20099;-74
2023/02/02 07:35:51;;;;;;;22.35;3.53;;;5.40;99.90;;;;;;5027290;28;20025;-76
2023/02/02 07:38:17;;;;;;;33.40;5.43;;;5.40;99.90;;;;;;5023354;28;20029;-77
2023/02/02 07:40:43;;;;;;;28.95;4.55;;;5.40;99.90;;;;;;4988390;28;20026;-77
2023/02/02 07:43:09;;;;;;;22.42;4.55;;;5.40;99.90;;;;;;5026724;28;20145;-78
2023/02/02 07:45:35;;;;;;;18.80;3.63;;;5.40;99.90;;;;;;5006478;28;20108;-75
2023/02/02 07:48:01;;;;;;;22.23;3.50;;;5.40;99.90;;;;;;5025548;28;20036;-76
2023/02/02 07:50:29;;;;;;;25.88;5.22;;;5.40;99.90;;;;;;5028747;28;20095;-75
2023/02/02 07:52:55;;;;;;;28.02;3.58;;;5.40;99.90;;;;;;5027030;28;20509;-75
2023/02/02 07:55:24;;;;;;;33.95;4.10;;;5.40;99.90;;;;;;5009490;28;20044;-74
2023/02/02 07:57:51;;;;;;;24.33;3.47;;;5.40;99.90;;;;;;5029668;28;20060;-74
2023/02/02 08:00:17;;;;;;;20.40;3.47;;;5.40;99.90;;;;;;5029782;28;20075;-76
2023/02/02 08:02:43;;;;;;;20.75;3.38;;;5.40;99.90;;;;;;5031676;28;20176;-75
2023/02/02 08:05:09;;;;;;;24.67;3.50;;;5.50;99.90;;;;;;5023693;28;20029;-74
2023/02/02 08:07:35;;;;;;;20.52;3.33;;;6.00;99.90;;;;;;5012972;28;20013;-75
2023/02/02 08:10:01;;;;;;;30.25;3.65;;;5.80;99.90;;;;;;5026697;28;20033;-75
2023/02/02 08:12:27;;;;;;;18.38;2.88;;;5.70;99.90;;;;;;5030849;28;20466;-74
2023/02/02 08:14:53;;;;;;;19.42;3.40;;;5.60;99.90;;;;;;5029225;28;20200;-77
2023/02/02 08:17:19;;;;;;;22.95;5.13;;;5.60;99.90;;;;;;5010825;28;20092;-77
2023/02/02 08:19:44;;;;;;;14.93;3.28;;;5.60;99.90;;;;;;5027507;28;20029;-75
2023/02/02 08:22:10;;;;;;;17.60;3.58;;;5.50;99.90;;;;;;5028977;28;20477;-77
2023/02/02 08:24:41;;;;;;;22.60;3.67;;;5.50;99.90;;;;;;5050612;28;20028;-75
2023/02/02 08:27:07;;;;;;;25.40;3.28;;;5.50;99.90;;;;;;5029454;28;20060;-75
2023/02/02 08:29:35;;;;;;;24.08;3.25;;;5.40;99.90;;;;;;5027275;28;20508;-77
2023/02/02 08:32:01;;;;;;;17.98;3.03;;;5.40;99.90;;;;;;5026327;28;20045;-75
2023/02/02 08:34:27;;;;;;;24.67;3.22;;;5.50;99.90;;;;;;5027454;28;20056;-75
2023/02/02 08:36:53;;;;;;;24.10;3.95;;;5.50;99.90;;;;;;5028694;28;20450;-76
2023/02/02 08:39:19;;;;;;;23.95;3.00;;;5.50;99.90;;;;;;5026992;28;20025;-75
2023/02/02 08:41:45;;;;;;;17.58;3.00;;;5.50;99.90;;;;;;5023737;28;20026;-75
2023/02/02 08:44:13;;;;;;;26.00;2.88;;;5.50;99.90;;;;;;5027367;28;20032;-75
2023/02/02 08:46:40;;;;;;;14.38;2.65;;;5.50;99.90;;;;;;5028157;28;20096;-74
2023/02/02 08:49:09;;;;;;;19.27;2.88;;;5.60;99.90;;;;;;5023810;28;20474;-75
2023/02/02 08:51:35;;;;;;;18.60;2.75;;;5.60;99.90;;;;;;5010996;28;20032;-78
2023/02/02 08:54:00;;;;;;;21.08;2.88;;;5.60;99.90;;;;;;5029345;28;20033;-76
2023/02/02 08:56:26;;;;;;;18.77;2.40;;;5.50;99.90;;;;;;5038820;28;20021;-76
2023/02/02 08:58:59;;;;;;;19.75;2.60;;;5.50;99.90;;;;;;5028051;28;20742;-76
2023/02/02 09:01:27;;;;;;;17.75;2.38;;;5.50;99.90;;;;;;5027450;28;20033;-76
2023/02/02 09:03:55;;;;;;;15.25;3.42;;;5.50;99.90;;;;;;5024064;28;20037;-78
2023/02/02 09:06:25;;;;;;;19.23;3.67;;;5.60;99.90;;;;;;5042549;28;20465;-79
2023/02/02 09:08:50;;;;;;;20.05;2.58;;;5.60;99.90;;;;;;5025095;28;20017;-75
2023/02/02 09:11:18;;;;;;;20.45;3.20;;;5.60;99.90;;;;;;5024723;28;20453;-75
2023/02/02 09:13:47;;;;;;;25.13;3.33;;;5.70;99.90;;;;;;5027597;28;20033;-75
2023/02/02 09:16:15;;;;;;;14.27;2.83;;;5.80;99.90;;;;;;5025963;28;20036;-77
2023/02/02 09:18:43;;;;;;;19.95;3.17;;;5.90;99.90;;;;;;5024650;28;20033;-77
2023/02/02 09:21:11;;;;;;;21.10;5.82;;;5.80;99.90;;;;;;5026845;28;20401;-75
2023/02/02 09:23:39;;;;;;;12.63;2.50;;;5.80;99.90;;;;;;5028311;28;20033;-76
2023/02/02 09:26:16;;;;;;;20.83;3.55;;;5.90;99.90;;;;;;5021902;28;20022;-75
2023/02/02 09:28:47;;;;;;;23.77;2.65;;;5.90;99.90;;;;;;5025935;28;20033;-77
2023/02/02 09:31:14;;;;;;;22.92;2.35;;;5.80;99.90;;;;;;5024242;28;20030;-75
2023/02/02 09:33:41;;;;;;;16.42;2.97;;;5.80;99.90;;;;;;5025926;28;20057;-74
2023/02/02 09:36:13;;;;;;;24.15;3.08;;;5.80;99.90;;;;;;5025864;28;20084;-74
2023/02/02 09:38:40;;;;;;;18.98;2.30;;;5.80;99.90;;;;;;5026268;28;20451;-76
2023/02/02 09:41:34;;;;;;;17.77;2.53;;;5.80;99.90;;;;;;5023954;28;20017;-76
2023/02/02 09:44:44;;;;;;;19.65;2.17;;;5.80;99.90;;;;;;5012577;28;20061;-76
2023/02/02 09:47:18;;;;;;;15.10;2.05;;;5.80;99.90;;;;;;5027774;28;20025;-75
2023/02/02 09:50:01;;;;;;;15.32;2.50;;;5.80;99.90;;;;;;5007456;28;20045;-75
2023/02/02 09:52:29;;;;;;;16.73;2.70;;;5.90;99.90;;;;;;5025865;28;20108;-75
2023/02/02 09:55:02;;;;;;;21.05;3.30;;;5.90;99.90;;;;;;5024988;28;20026;-76
2023/02/02 09:57:37;;;;;;;18.92;2.17;;;5.90;99.90;;;;;;5025604;28;20022;-77
2023/02/02 10:00:04;;;;;;;17.85;1.80;;;5.90;99.90;;;;;;5026262;28;20041;-75
2023/02/02 10:02:41;;;;;;;15.07;2.72;;;6.00;99.90;;;;;;5026247;28;20551;-75
2023/02/02 10:05:24;;;;;;;16.10;2.15;;;6.00;99.90;;;;;;5027430;28;20096;-76
2023/02/02 10:07:55;;;;;;;20.88;2.42;;;6.00;99.90;;;;;;5030537;28;20037;-76
2023/02/02 10:10:36;;;;;;;16.92;2.13;;;6.10;99.90;;;;;;5022133;28;20780;-76
2023/02/02 10:13:10;;;;;;;16.77;2.75;;;6.10;99.90;;;;;;5026410;28;20037;-76
2023/02/02 10:15:58;;;;;;;16.38;2.72;;;6.10;99.90;;;;;;5026339;28;20112;-75
2023/02/02 10:18:39;;;;;;;14.10;2.00;;;6.10;99.90;;;;;;5025160;28;20580;-76
2023/02/02 10:21:24;;;;;;;13.98;2.03;;;6.20;99.90;;;;;;5038496;28;20066;-76
2023/02/02 10:23:50;;;;;;;18.00;3.28;;;6.20;99.90;;;;;;5008679;28;20033;-74
2023/02/02 10:26:18;;;;;;;12.75;2.50;;;6.30;99.90;;;;;;5023298;28;20026;-76
2023/02/02 10:29:02;;;;;;;14.45;2.22;;;6.30;99.90;;;;;;5025373;28;20037;-74
2023/02/02 10:31:42;;;;;;;17.88;2.55;;;6.40;99.90;;;;;;5029047;28;20055;-74
2023/02/02 10:34:33;;;;;;;17.95;2.75;;;6.40;99.90;;;;;;5030103;28;20037;-77
2023/02/02 10:37:06;;;;;;;17.38;2.25;;;6.40;99.90;;;;;;5046439;28;20030;-76
2023/02/02 10:39:52;;;;;;;11.68;2.28;;;6.40;99.90;;;;;;5028803;28;20024;-74
2023/02/02 10:45:43;;;;;;;21.08;2.45;;;6.50;99.90;;;;;;5033969;28;20034;-76
2023/02/02 10:48:22;;;;;;;13.80;2.10;;;6.50;99.90;;;;;;5032355;28;20040;-76
2023/02/02 10:50:53;;;;;;;12.43;2.55;;;6.50;99.90;;;;;;5037012;28;20091;-74
2023/02/02 10:53:19;;;;;;;15.32;1.83;;;6.60;99.90;;;;;;5028936;28;20044;-76
2023/02/02 10:56:05;;;;;;;13.98;2.47;;;6.60;99.90;;;;;;5026674;28;20476;-76
2023/02/02 10:58:56;;;;;;;15.50;2.35;;;6.70;99.90;;;;;;5027282;28;20033;-76
2023/02/02 11:01:22;;;;;;;;;;;6.70;99.90;;;;;;5025205;28;20345;-75
2023/02/02 11:06:48;;;;;;;15.82;1.83;;;6.70;99.90;;;;;;5009001;28;19927;-75
2023/02/02 11:06:50;;;;;;;9.52;1.63;;;6.70;99.90;;;;;;5030815;28;20076;-75
2023/02/02 11:09:30;;;;;;;16.77;2.25;;;6.60;99.90;;;;;;5031158;28;20069;-75
2023/02/02 11:12:18;;;;;;;12.00;2.70;;;6.70;99.90;;;;;;5028809;28;20036;-75
2023/02/02 11:14:56;;;;;;;13.25;1.83;;;6.90;99.90;;;;;;5028079;28;20115;-76
2023/02/02 11:17:24;;;;;;;9.93;1.63;;;6.90;99.90;;;;;;5030521;28;20083;-74
2023/02/02 11:19:50;;;;;;;10.80;2.00;;;6.90;99.90;;;;;;5028193;28;20036;-76
2023/02/02 11:22:26;;;;;;;12.02;2.10;;;7.00;99.90;;;;;;5044336;28;20119;-75
2023/02/02 11:24:53;;;;;;;18.23;2.05;;;6.90;99.90;;;;;;5026718;28;20025;-75
2023/02/02 11:27:22;;;;;;;13.48;2.05;;;6.90;99.90;;;;;;5024739;28;20032;-75
2023/02/02 11:29:58;;;;;;;12.75;2.05;;;7.00;99.90;;;;;;5028597;28;20056;-77
2023/02/02 11:32:24;;;;;;;9.07;2.35;;;7.00;99.90;;;;;;5043715;28;20052;-74
2023/02/02 11:35:16;;;;;;;11.15;2.30;;;7.00;99.90;;;;;;5027359;28;20107;-75
2023/02/02 11:38:07;;;;;;;16.55;2.28;;;6.90;99.90;;;;;;5027614;28;20049;-75
2023/02/02 11:40:55;;;;;;;17.57;1.90;;;6.90;99.90;;;;;;5026417;28;20043;-76
2023/02/02 11:43:50;;;;;;;12.60;1.75;;;6.90;99.90;;;;;;5029245;28;20319;-76
2023/02/02 11:46:27;;;;;;;8.13;2.35;;;6.90;99.90;;;;;;5030176;28;20125;-75
2023/02/02 11:49:17;;;;;;;7.03;1.60;;;6.90;99.90;;;;;;5029420;28;20147;-75
2023/02/02 11:51:54;;;;;;;9.52;2.72;;;7.00;99.90;;;;;;5031854;28;20033;-76
2023/02/02 11:54:28;;;;;;;9.40;1.50;;;7.10;99.90;;;;;;5026683;28;20025;-75
2023/02/02 11:56:58;;;;;;;12.52;2.10;;;7.20;99.90;;;;;;5028496;28;20026;-75
2023/02/02 11:59:29;;;;;;;6.30;1.20;;;7.20;99.90;;;;;;5026701;28;20034;-75
2023/02/02 12:02:18;;;;;;;10.55;2.05;;;7.30;99.90;;;;;;5028413;28;20180;-76
2023/02/02 12:04:45;;;;;;;14.90;2.15;;;7.20;99.90;;;;;;5030148;28;21041;-75
2023/02/02 12:07:32;;;;;;;13.77;1.67;;;7.20;99.90;;;;;;5028315;28;20030;-74
2023/02/02 12:10:24;;;;;;;7.93;1.38;;;7.20;99.90;;;;;;5026948;28;20029;-76
2023/02/02 12:12:56;;;;;;;15.30;2.00;;;7.30;99.90;;;;;;5029596;28;20091;-76
2023/02/02 12:15:42;;;;;;;;;;;7.30;99.90;;;;;;5036817;28;20497;-77
2023/02/02 12:18:26;;;;;;;7.38;1.08;;;7.30;99.90;;;;;;5024450;28;19908;-76
2023/02/02 12:21:03;;;;;;;11.50;1.98;;;7.30;99.90;;;;;;5025301;28;20029;-73
2023/02/02 12:23:47;;;;;;;23.77;2.30;;;7.30;99.90;;;;;;5024791;28;20107;-74
2023/02/02 12:26:33;;;;;;;7.03;1.30;;;7.30;99.90;;;;;;5025958;28;20378;-74
2023/02/02 12:29:14;;;;;;;8.88;1.42;;;7.20;99.90;;;;;;5011067;28;20351;-74
2023/02/02 12:32:04;;;;;;;9.40;1.70;;;7.20;99.90;;;;;;5026147;28;20577;-78
2023/02/02 12:34:35;;;;;;;6.75;1.20;;;7.20;99.90;;;;;;5027728;28;20056;-76
2023/02/02 12:37:19;;;;;;;8.25;1.75;;;7.30;99.90;;;;;;5026656;28;20040;-76
2023/02/02 12:40:17;;;;;;;10.55;2.00;;;7.40;99.90;;;;;;5026518;28;20512;-75
2023/02/02 12:43:03;;;;;;;11.40;2.63;;;7.50;99.90;;;;;;5025312;28;20025;-75
2023/02/02 12:46:01;;;;;;;12.82;1.60;;;7.40;99.90;;;;;;5020656;28;20387;-78
2023/02/02 12:48:48;;;;;;;11.05;1.98;;;7.40;99.90;;;;;;5025909;28;20132;-76
2023/02/02 12:51:23;;;;;;;9.10;1.70;;;7.30;99.90;;;;;;5028917;28;20115;-75
2023/02/02 12:54:22;;;;;;;8.68;1.73;;;7.30;99.90;;;;;;5027902;28;20033;-76
2023/02/02 12:57:02;;;;;;;11.07;2.00;;;7.20;99.90;;;;;;5024650;28;20040;-76
2023/02/02 12:59:39;;;;;;;12.88;2.13;;;7.30;99.90;;;;;;5009522;28;20033;-76
2023/02/02 13:02:24;;;;;;;16.67;2.33;;;7.30;99.90;;;;;;5023015;28;20025;-76
2023/02/02 13:05:25;;;;;;;9.45;2.00;;;7.20;99.90;;;;;;5028214;28;20025;-75
2023/02/02 13:08:09;;;;;;;7.72;2.17;;;7.30;99.90;;;;;;5026230;28;20108;-75
2023/02/02 13:10:51;;;;;;;9.57;1.67;;;7.20;99.90;;;;;;5023666;28;20033;-76
2023/02/02 13:13:24;;;;;;;9.80;1.85;;;7.20;99.90;;;;;;5040783;28;20052;-76
2023/02/02 13:16:10;;;;;;;10.90;1.60;;;7.20;99.90;;;;;;5040306;28;20029;-75
2023/02/02 13:18:50;;;;;;;9.18;1.70;;;7.10;99.90;;;;;;5028481;28;20057;-75
2023/02/02 13:21:21;;;;;;;10.77;1.90;;;7.10;99.90;;;;;;5027821;28;20038;-75